Alpine, Montana
Current Conditions -  °F | °C
As of 1:15 PM on Thursday 29 Jan 2015 (Local Time) from KPOY Reporting Station
Clear Clear  
Wind Chill: 31°   Ceiling: Unl
Heat Index: 39°   Visibility: 10mi
Dew Point: 30°   Wind: 14mph
Humidity: 70%   Direction: 140°SE
Pressure: 30.33"   Gusts: 18mph
Location:  45.3708°N, 109.409°W
Report Text: KPOY 292015Z AUTO 14012G16KT 10SM CLR 04/M01 A3033 RMK AO2
Loading
Personal Weather Stations






























Interactive Weather Map New forecast layout! Learn more

10-Day Weather Forecast

Advertisements
Track Severe Weather on mobile